Latest Coastal Weather Observations for Legendre Island

IDW60701

Issued at 9:42 pm WST Tuesday 9 February 2016 (issued every 10 minutes, with the page automatically refreshed every 10 minutes)

About coastal observations | Map of coastal stations | Coastal observations for WA | Marine services | Other Formats
Station Details ID: 004095 Name: LEGENDRE ISLAND Lat: -20.36 Lon: 116.84 Height: 29.0 m
Data from the previous 72 hours. | See also: Recent months at Legendre Island
Date/Time
WST
Temp

°C
Wind Pressure Rain
since 9am
mm
Weather Cloud Vis
km
Sea
Height
m
Swell
Dir
 
Speed
knots
Gust
knots
hPa Trend Height
m
Period
s
Dir
09/09:30pm 27.7 W 8 10 1008.9 - - - - - - - - -
09/09:00pm 27.7 W 9 10 1008.6 - - - - - - - - -
09/08:30pm 27.9 W 9 10 1008.5 - - - - - - - - -
09/08:00pm 28.1 WSW 9 9 1008.2 - - - - - - - - -
09/07:30pm 28.4 WSW 9 10 1007.9 - - - - - - - - -
09/07:00pm 28.8 WSW 9 10 1007.4 - - - - - - - - -
09/06:30pm 29.6 WSW 9 10 1007.3 - - - - - - - - -
09/06:00pm 30.1 W 10 11 1007.1 - - - - - - - - -
09/05:30pm 31.1 W 10 13 1006.8 - - - - - - - - -
09/05:00pm 30.8 WNW 11 13 1006.7 - - - - - - - - -
09/04:30pm 31.7 WNW 9 12 1006.6 - - - - - - - - -
09/04:00pm 32.3 WNW 10 13 1006.5 - - - - - - - - -
09/03:30pm 32.2 WNW 12 15 1006.6 - - - - - - - - -
09/03:00pm 32.5 WNW 11 13 1006.8 - - - - - - - - -
09/02:30pm 32.3 WNW 11 13 1007.1 - - - - - - - - -
09/02:00pm 33.0 NW 9 12 1007.4 - - - - - - - - -
09/01:30pm 34.2 WNW 7 9 1007.8 - - - - - - - - -
09/01:00pm 34.2 WNW 7 9 1008.1 - - - - - - - - -
09/12:30pm 35.4 WNW 6 8 1008.3 - - - - - - - - -
09/12:00pm 33.9 NW 5 8 1008.6 - - - - - - - - -
09/11:30am 33.8 W 7 11 1008.8 - - - - - - - - -
09/11:00am 34.0 WNW 6 9 1009.0 - - - - - - - - -
09/10:30am 33.8 WNW 4 7 1009.2 - - - - - - - - -
09/10:00am 33.2 NNE 3 5 1009.5 - - - - - - - - -
09/09:30am 32.4 N 3 5 1009.7 - - - - - - - - -
09/09:00am 31.8 N 3 4 1009.6 - - - - - - - - -
09/08:30am 33.4 S 3 6 1009.4 - - - - - - - - -
09/08:00am 31.8 SW 4 6 1009.3 - - - - - - - - -
09/07:30am 29.3 SSW 7 8 1009.1 - - - - - - - - -
09/07:00am 28.1 SW 8 8 1009.0 - - - - - - - - -
09/06:30am 27.6 SW 6 7 1008.8 - - - - - - - - -
09/06:00am 27.5 SW 8 9 1008.6 - - - - - - - - -
09/05:30am 27.4 SW 8 8 1008.2 - - - - - - - - -
09/05:00am 27.6 SW 7 8 1008.0 - - - - - - - - -
09/04:30am 27.4 SW 8 9 1007.9 - - - - - - - - -
09/04:00am 27.5 SW 7 8 1008.0 - - - - - - - - -
09/03:30am 27.8 SW 11 12 1007.8 - - - - - - - - -
09/03:00am 27.6 SSW 11 13 1007.9 - - - - - - - - -
09/02:30am 27.7 SW 12 13 1007.9 - - - - - - - - -
09/02:00am 27.6 SW 12 15 1008.0 - - - - - - - - -
09/01:30am 27.7 SW 9 12 1008.7 - - - - - - - - -
09/01:00am 27.8 WSW 12 14 1008.4 - - - - - - - - -
09/12:30am 27.3 WSW 11 12 1008.6 - - - - - - - - -
09/12:00am 27.5 WSW 11 13 1008.9 - - - - - - - - -
 
Date/Time
WST
Temp

°C
Wind Pressure Rain
since 9am
mm
Weather Cloud Vis
km
Sea
Height
m
Swell
Dir
 
Speed
knots
Gust
knots
hPa Trend Height
m
Period
s
Dir
08/11:30pm 27.4 WSW 10 11 1009.4 - - - - - - - - -
08/11:00pm 27.4 WSW 9 11 1009.7 - - - - - - - - -
08/10:30pm 27.6 WSW 9 10 1009.9 - - - - - - - - -
08/10:00pm 27.8 WSW 11 12 1009.8 - - - - - - - - -
08/09:30pm 27.8 SW 13 14 1009.6 - - - - - - - - -
08/09:00pm 28.1 SW 11 12 1009.2 - - - - - - - - -
08/08:30pm 28.4 SW 12 13 1008.7 - - - - - - - - -
08/08:00pm 28.9 SW 14 17 1008.2 - - - - - - - - -
08/07:30pm 28.9 WSW 15 18 1007.9 - - - - - - - - -
08/07:00pm 29.0 WSW 14 16 1007.5 - - - - - - - - -
08/06:30pm 29.7 WSW 13 15 1007.2 - - - - - - - - -
08/06:00pm 30.4 W 11 13 1006.9 - - - - - - - - -
08/05:30pm 30.6 W 12 14 1006.8 - - - - - - - - -
08/05:00pm 31.4 W 11 14 1006.7 - - - - - - - - -
08/04:30pm 31.8 W 11 13 1006.7 - - - - - - - - -
08/04:00pm 32.4 W 11 13 1006.8 - - - - - - - - -
08/03:30pm 32.8 W 11 13 1007.0 - - - - - - - - -
08/03:00pm 32.3 W 11 13 1007.3 - - - - - - - - -
08/02:30pm 32.8 W 9 11 1007.7 - - - - - - - - -
08/02:00pm 32.3 W 9 11 1008.0 - - - - - - - - -
08/01:30pm 32.4 W 9 11 1008.3 - - - - - - - - -
08/01:00pm 32.0 WSW 8 10 1008.4 - - - - - - - - -
08/12:30pm 32.0 WSW 9 11 1008.6 - - - - - - - - -
08/12:00pm 32.0 WSW 10 13 1009.0 - - - - - - - - -
08/11:30am 31.1 WSW 11 14 1009.2 - - - - - - - - -
08/11:00am 31.5 W 11 13 1009.5 - - - - - - - - -
08/10:30am 30.4 W 11 13 1009.5 - - - - - - - - -
08/10:00am 30.6 W 11 13 1009.7 - - - - - - - - -
08/09:30am 29.9 W 10 12 1009.7 - - - - - - - - -
08/09:00am 29.4 W 10 12 1009.6 - - - - - - - - -
08/08:30am 29.2 WNW 10 12 1009.5 - - - - - - - - -
08/08:00am 28.4 WNW 10 12 1009.5 - - - - - - - - -
08/07:30am 27.8 WNW 9 10 1009.4 - - - - - - - - -
08/07:00am 27.1 NW 8 10 1009.5 - - - - - - - - -
08/06:30am 26.8 W 8 9 1009.2 - - - - - - - - -
08/06:00am 26.7 WNW 7 9 1009.0 - - - - - - - - -
08/05:30am 26.9 WNW 7 8 1008.9 - - - - - - - - -
08/05:00am 27.0 WNW 7 8 1008.8 - - - - - - - - -
08/04:30am 27.0 N 3 4 1008.8 - - - - - - - - -
08/04:00am 27.6 WSW 5 7 1008.4 - - - - - - - - -
08/03:30am 27.9 SW 14 17 1007.8 - - - - - - - - -
08/03:00am 27.6 SW 17 20 1007.9 - - - - - - - - -
08/02:30am 27.7 WSW 17 19 1008.3 - - - - - - - - -
08/02:00am 27.6 SW 15 18 1008.7 - - - - - - - - -
08/01:30am 27.4 WSW 14 18 1009.0 - - - - - - - - -
08/01:00am 27.4 SW 15 19 1009.1 - - - - - - - - -
08/12:30am 27.4 SW 17 20 1009.1 - - - - - - - - -
08/12:00am 27.4 SW 18 21 1009.4 - - - - - - - - -
 
Date/Time
WST
Temp

°C
Wind Pressure Rain
since 9am
mm
Weather Cloud Vis
km
Sea
Height
m
Swell
Dir
 
Speed
knots
Gust
knots
hPa Trend Height
m
Period
s
Dir
07/11:30pm 27.2 WSW 17 19 1010.1 - - - - - - - - -
07/11:00pm 27.1 WSW 15 17 1010.5 - - - - - - - - -
07/10:30pm 27.1 WSW 12 15 1010.5 - - - - - - - - -
07/10:00pm 27.2 WSW 12 13 1010.4 - - - - - - - - -
07/09:30pm 27.3 W 12 15 1010.1 - - - - - - - - -
07/09:00pm 27.4 W 13 15 1009.8 - - - - - - - - -
07/08:30pm 27.6 W 12 13 1009.3 - - - - - - - - -
07/08:00pm 27.7 W 13 16 1008.8 - - - - - - - - -
07/07:30pm 27.9 W 12 14 1008.4 - - - - - - - - -
07/07:00pm 28.1 W 13 16 1007.9 - - - - - - - - -
07/06:30pm 28.9 W 14 16 1007.5 - - - - - - - - -
07/06:00pm 29.4 W 14 15 1007.2 - - - - - - - - -
07/05:30pm 30.1 W 13 16 1006.9 - - - - - - - - -
07/05:00pm 30.6 W 14 17 1006.7 - - - - - - - - -
07/04:30pm 31.6 W 14 17 1006.6 - - - - - - - - -
07/04:00pm 31.7 WNW 13 16 1006.8 - - - - - - - - -
07/03:30pm 31.2 WNW 13 15 1006.9 - - - - - - - - -
07/03:00pm 31.4 WNW 12 14 1007.2 - - - - - - - - -
07/02:30pm 32.0 WNW 11 13 1007.4 - - - - - - - - -
07/02:00pm 31.5 WNW 12 14 1007.7 - - - - - - - - -
07/01:30pm 32.0 WNW 12 14 1008.1 - - - - - - - - -
07/01:00pm 31.8 WNW 13 15 1008.5 - - - - - - - - -
07/12:30pm 31.3 NW 12 14 1008.8 - - - - - - - - -
07/12:00pm 30.8 NW 10 13 1009.0 - - - - - - - - -
07/11:30am 31.4 WNW 10 12 1009.1 - - - - - - - - -
07/11:00am 31.6 WNW 8 11 1009.3 - - - - - - - - -
07/10:30am 30.9 W 7 9 1009.3 - - - - - - - - -
07/10:00am 31.7 W 7 11 1009.3 - - - - - - - - -
07/09:30am 32.3 SSW 5 7 1009.3 - - - - - - - - -
07/09:00am 31.6 SSW 6 7 1009.2 - - - - - - - - -
07/08:30am 31.0 SSW 3 7 1009.1 - - - - - - - - -
07/08:00am 29.7 SW 5 7 1008.8 - - - - - - - - -
07/07:30am 28.8 WSW 5 6 1008.5 - - - - - - - - -
07/07:00am 28.0 SW 4 4 1008.3 - - - - - - - - -
07/06:30am 26.8 SSW 3 4 1008.1 - - - - - - - - -
07/06:00am 26.4 SSW 3 3 1007.8 - - - - - - - - -
07/05:30am 26.1 SSW 6 6 1007.5 - - - - - - - - -
07/05:00am 26.6 SSW 9 10 1007.3 - - - - - - - - -
07/04:30am 26.8 SSW 10 12 1007.3 - - - - - - - - -
07/04:00am 26.9 SW 11 13 1007.2 - - - - - - - - -
07/03:30am 26.9 SW 13 15 1007.0 - - - - - - - - -
07/03:00am 26.9 SW 12 15 1007.1 - - - - - - - - -
07/02:30am 26.8 SW 13 15 1007.3 - - - - - - - - -
07/02:00am 26.8 SW 14 16 1007.2 - - - - - - - - -
07/01:30am 26.7 SW 14 17 1007.4 - - - - - - - - -
07/01:00am 26.8 WSW 16 18 1007.7 - - - - - - - - -
07/12:30am 26.8 WSW 13 15 1007.8 - - - - - - - - -
07/12:00am 26.7 WSW 12 14 1008.0 - - - - - - - - -
 
Date/Time
WST
Temp

°C
Wind Pressure Rain
since 9am
mm
Weather Cloud Vis
km
Sea
Height
m
Swell
Dir
 
Speed
knots
Gust
knots
hPa Trend Height
m
Period
s
Dir
06/11:30pm 26.8 WSW 13 15 1008.4 - - - - - - - - -
06/11:00pm 26.8 WSW 12 14 1008.5 - - - - - - - - -
06/10:30pm 26.8 WSW 12 14 1008.4 - - - - - - - - -
06/10:00pm 26.8 W 12 15 1008.3 - - - - - - - - -

Other Formats:

Comma delimited format used in spreadsheet applications
http://www.bom.gov.au/fwo/IDW60701/IDW60701.94307.axf

JavaScript Object Notation format (JSON) in row-major order
http://www.bom.gov.au/fwo/IDW60701/IDW60701.94307.json